Terminal Aerodrome Forecast
Issued by NWS

Home | Current Version | Previous Version | Text Only | Print | Product List | Glossary On
Versions: 1 2 3 4 5 6 7 8 9 10 11 12 13 14 15 16 17
232
FTUS41 KBGM 291727
TAFRME
TAF
KRME 291727Z 2918/3018 13010KT P6SM BKN022 OVC035
      TEMPO 2918/2921 3SM SHRA BR
     FM292100 12007KT P6SM BKN035
     FM300300 12005KT P6SM SCT035
     FM300800 12005KT 5SM BR OVC015
     FM301500 14008KT 4SM SHRA BR OVC025=

USA.gov is the U.S. government's official web portal to all federal, state and local government web resources and services.